タシケント空港の過去48時間の天気

タシケント空港 (Tashkent)

現在時刻: 10/1 22:11 +05 (10/1 17:11 UTC) 以下の時間は現地時間です。

過去48時間のMETAR気象情報
時間 風向 風速(m/s) 視程 気温(℃) 湿度(%) 気圧(hPa) 天気現象
1 22:00 4 10km以上 17 39 1019
1 21:30 4 10km以上 17 39 1019
1 21:00 4 10km以上 17 36 1019
1 20:30 5 10km以上 18 34 1019
1 20:00 3 10km以上 18 37 1019
1 19:30 4 10km以上 19 35 1019
1 19:00 4 10km以上 19 35 1019
1 18:30 3 10km以上 20 32 1019
1 18:00 北北西 3 10km以上 21 28 1019
1 17:30 北北西 5 10km以上 21 28 1019
1 17:00 北北西 4 10km以上 22 25 1018
1 16:30 北北西 4 10km以上 22 25 1018
1 16:00 4 10km以上 23 23 1018
1 15:30 北西 5 10km以上 23 23 1018
1 15:00 北西 4 10km以上 23 23 1018
1 14:30 西北西 5 10km以上 22 25 1018
1 14:00 3 10km以上 22 27 1018
1 13:30 4 10km以上 22 27 1019
1 13:00 3 10km以上 22 27 1019
1 12:30 北北西 3 10km以上 21 28 1019
1 12:00 3 10km以上 21 26 1019
1 11:30 4 10km以上 21 26 1020
1 11:00 4 10km以上 20 32 1020
1 10:30 4 10km以上 20 32 1020
1 10:00 5 10km以上 19 35 1020
1 09:30 北北東 5 10km以上 18 39 1020
1 09:00 北北東 3 10km以上 17 45 1020
1 08:30 北北東 3 10km以上 15 55 1020
1 08:00 北東 4 10km以上 14 55 1020
1 07:30 北東 3 10km以上 12 67 1020
1 06:30 北東 2 10km以上 11 67 1020
1 06:00 北東 3 10km以上 12 62 1020
1 05:30 不定 1 10km以上 11 71 1020
1 05:00 不定 1 10km以上 10 71 1020
1 04:30 東北東 2 10km以上 11 67 1020
1 04:00 東北東 3 10km以上 11 67 1020
1 03:30 東北東 3 10km以上 11 67 1020
1 03:00 北東 3 10km以上 12 62 1020
1 02:30 東北東 3 10km以上 11 71 1020
1 02:00 東北東 3 10km以上 12 62 1020
1 01:30 東北東 3 10km以上 11 67 1020
1 01:00 東北東 4 10km以上 12 62 1020
1 00:30 東北東 3 10km以上 11 67 1020
1 00:00 東北東 3 10km以上 11 67 1020
30 23:30 東北東 4 10km以上 11 67 1020
30 23:00 東北東 3 10km以上 11 67 1020
30 22:30 4 10km以上 12 67 1020
30 22:00 4 10km以上 12 67 1021
30 21:30 東北東 3 10km以上 13 62 1021
30 21:00 東北東 3 10km以上 14 59 1021
30 20:30 2 10km以上 14 55 1021
30 20:00 東南東 2 10km以上 14 55 1021
30 19:30 南南東 2 10km以上 15 55 1021
30 19:00 南南東 3 10km以上 16 48 1021
30 18:30 南南東 2 10km以上 17 48 1021
30 18:00 南南東 3 10km以上 18 42 1021
30 17:30 2 10km以上 18 45 1021
30 17:00 3 10km以上 18 42 1021
30 16:30 3 10km以上 18 42 1021
30 16:00 3 10km以上 18 42 1020
30 15:30 南南東 2 10km以上 18 42 1020
30 15:00 東南東 1 10km以上 19 40 1020
30 14:30 南南西 2 10km以上 19 37 1020
30 14:00 西南西 3 10km以上 18 39 1020
30 13:30 南南西 2 10km以上 18 37 1020
30 13:00 南南西 3 10km以上 17 39 1020
30 12:30 3 10km以上 17 42 1021
30 12:00 3 10km以上 16 48 1021
30 11:30 南南東 2 10km以上 15 48 1021
30 11:00 2 10km以上 14 55 1021
30 10:30 南東 2 10km以上 14 55 1021
30 10:00 北東 1 10km以上 12 62 1021
30 09:30 不定 1 10km以上 11 71 1021 弱いしゅう雨
30 09:00 南西 3 10km以上 13 51 1021 弱いしゅう雨
30 08:30 3 10km以上 13 47 1021
30 08:00 2 10km以上 13 41 1020
30 07:30 2 10km以上 13 38 1020
30 07:00 3 10km以上 13 38 1020
30 06:30 2 10km以上 13 38 1020
30 06:00 南南西 2 10km以上 13 38 1020
30 05:30 南南西 2 10km以上 13 38 1019
30 05:00 南西 3 10km以上 13 44 1019
30 04:30 3 10km以上 13 62 1019
30 04:00 3 10km以上 13 67 1018
30 03:30 南南東 4 10km以上 12 77 1018
30 03:00 南南東 4 10km以上 13 67 1018
30 02:30 南南東 4 10km以上 13 67 1018
30 02:00 南南東 3 10km以上 13 67 1018
30 01:30 南南東 4 10km以上 13 67 1018
30 01:00 南南東 3 10km以上 14 63 1017
30 00:30 南南西 3 10km以上 14 63 1017
30 00:00 南西 4 10km以上 14 59 1017
29 23:30 南南西 3 10km以上 15 51 1018
29 23:00 3 10km以上 16 45 1018
29 22:30 南東 4 10km以上 17 34 1018
UTTT 011700Z 36008KT CAVOK 17/03 Q1019 R08R/CLRD70 NOSIG
UTTT 011630Z 35008KT CAVOK 17/03 Q1019 R08R/CLRD70 NOSIG
UTTT 011600Z 36008KT CAVOK 17/02 Q1019 R08R/CLRD70 NOSIG
UTTT 011530Z 35010KT CAVOK 18/02 Q1019 R08R/CLRD70 NOSIG
UTTT 011500Z 35006KT CAVOK 18/03 Q1019 R08R/CLRD70 NOSIG
UTTT 011430Z 35008KT 320V040 CAVOK 19/03 Q1019 R08R/CLRD70 NOSIG
UTTT 011400Z 35008KT 320V020 CAVOK 19/03 Q1019 R08R/CLRD70 NOSIG
UTTT 011330Z 35006KT 290V020 CAVOK 20/03 Q1019 R08R/CLRD70 NOSIG
UTTT 011300Z 33006KT 300V010 CAVOK 21/02 Q1019 R08R/CLRD70 NOSIG
UTTT 011230Z 33010KT CAVOK 21/02 Q1019 R08R/CLRD70 NOSIG
UTTT 011200Z 34008KT 310V020 CAVOK 22/01 Q1018 R08R/CLRD70 NOSIG
UTTT 011130Z 33008KT 300V010 CAVOK 22/01 Q1018 R08R/CLRD70 NOSIG
UTTT 011100Z 36008KT 300V050 CAVOK 23/01 Q1018 R08R/CLRD70 NOSIG
UTTT 011030Z 32010KT 260V010 CAVOK 23/01 Q1018 R08R/CLRD70 NOSIG
UTTT 011000Z 32008KT 270V350 CAVOK 23/01 Q1018 R08R/CLRD70 NOSIG
UTTT 010930Z 30010KT 260V330 CAVOK 22/01 Q1018 R08R/CLRD70 NOSIG
UTTT 010900Z 01006KT 330V060 CAVOK 22/02 Q1018 R08R/CLRD70 NOSIG
UTTT 010830Z 01008KT 310V060 CAVOK 22/02 Q1019 R08R/CLRD70 NOSIG
UTTT 010800Z 35006KT 290V050 CAVOK 22/02 Q1019 R08R/CLRD70 NOSIG
UTTT 010730Z 34006KT 290V020 CAVOK 21/02 Q1019 R08R/CLRD70 NOSIG
UTTT 010700Z 35006KT 290V070 CAVOK 21/01 Q1019 R08R/CLRD70 NOSIG
UTTT 010630Z 01008KT CAVOK 21/01 Q1020 R08R/CLRD70 NOSIG
UTTT 010600Z 35008KT 330V050 CAVOK 20/03 Q1020 R08R/CLRD70 NOSIG
UTTT 010530Z 01008KT 320V050 CAVOK 20/03 Q1020 R08R/CLRD70 NOSIG
UTTT 010500Z 01010KT CAVOK 19/03 Q1020 R08R/CLRD70 NOSIG
UTTT 010430Z 03010KT CAVOK 18/04 Q1020 R08R/CLRD70 NOSIG
UTTT 010400Z 02006KT CAVOK 17/05 Q1020 R08R/CLRD70 NOSIG
UTTT 010330Z 03006KT CAVOK 15/06 Q1020 R08R/CLRD70 NOSIG
UTTT 010300Z 04008KT CAVOK 14/05 Q1020 R08R/CLRD70 NOSIG
UTTT 010230Z 05006KT CAVOK 12/06 Q1020 R08R/CLRD70 NOSIG
UTTT 010130Z 04004KT CAVOK 11/05 Q1020 R08R/CLRD70 NOSIG
UTTT 010100Z 05006KT CAVOK 12/05 Q1020 R08R/CLRD70 NOSIG
UTTT 010030Z VRB02KT CAVOK 11/06 Q1020 R08R/CLRD70 NOSIG
UTTT 010000Z VRB02KT CAVOK 10/05 Q1020 R08R/CLRD70 NOSIG
UTTT 302330Z 06004KT CAVOK 11/05 Q1020 R08R/CLRD70 NOSIG
UTTT 302300Z 06006KT CAVOK 11/05 Q1020 R08R/CLRD70 NOSIG
UTTT 302230Z 07006KT CAVOK 11/05 Q1020 R08R/CLRD70 NOSIG
UTTT 302200Z 05006KT CAVOK 12/05 Q1020 R08R/CLRD70 NOSIG
UTTT 302130Z 06006KT CAVOK 11/06 Q1020 R08R/CLRD70 NOSIG
UTTT 302100Z 06006KT CAVOK 12/05 Q1020 R08R/CLRD70 NOSIG
UTTT 302030Z 06006KT CAVOK 11/05 Q1020 R08R/CLRD70 NOSIG
UTTT 302000Z 06008KT CAVOK 12/05 Q1020 R08R/CLRD70 NOSIG
UTTT 301930Z 06006KT CAVOK 11/05 Q1020 R08R/CLRD70 NOSIG
UTTT 301900Z 07006KT CAVOK 11/05 Q1020 R08R/CLRD70 NOSIG
UTTT 301830Z 07008KT CAVOK 11/05 Q1020 R08R/CLRD70 NOSIG
UTTT 301800Z 07006KT CAVOK 11/05 Q1020 R08R/CLRD70 NOSIG
UTTT 301730Z 08008KT CAVOK 12/06 Q1020 R08R/CLRD70 NOSIG
UTTT 301700Z 08008KT CAVOK 12/06 Q1021 R08R/CLRD70 NOSIG
UTTT 301630Z 07006KT CAVOK 13/06 Q1021 R08R/CLRD70 NOSIG
UTTT 301600Z 06006KT CAVOK 14/06 Q1021 R08R/CLRD70 NOSIG
UTTT 301530Z 08004KT CAVOK 14/05 Q1021 R08R/CLRD70 NOSIG
UTTT 301500Z 12004KT CAVOK 14/05 Q1021 R08R/CLRD70 NOSIG
UTTT 301430Z 15004KT CAVOK 15/06 Q1021 R08R/CLRD70 NOSIG
UTTT 301400Z 16006KT CAVOK 16/05 Q1021 R08R/CLRD70 NOSIG
UTTT 301330Z 16004KT CAVOK 17/06 Q1021 R08R/CLRD70 NOSIG
UTTT 301300Z 16006G16KT 110V190 9999 SCT051CB 18/05 Q1021 R08R/CLRD70 NOSIG
UTTT 301230Z 19004KT 160V220 9999 SCT066CB 18/06 Q1021 R08R/CLRD70 NOSIG
UTTT 301200Z 18006KT 150V220 9999 SCT066CB 18/05 Q1021 R08R/CLRD70 NOSIG
UTTT 301130Z 19006KT 150V250 9999 SCT066CB 18/05 Q1021 R08R/CLRD70 NOSIG
UTTT 301100Z 19006KT 150V230 9999 SCT066CB 18/05 Q1020 R08R/CLRD70 NOSIG
UTTT 301030Z 16004KT 120V200 9999 SCT066CB 18/05 Q1020 R08R/CLRD70 NOSIG
UTTT 301000Z 12002KT 9999 SCT066CB 19/05 Q1020 R08R/CLRD70 NOSIG
UTTT 300930Z 20004KT 9999 SCT066CB 19/04 Q1020 R08R/CLRD70 NOSIG
UTTT 300900Z 24006KT 9999 SCT066CB 18/04 Q1020 R08R/CLRD70 NOSIG
UTTT 300830Z 20004KT 9999 SCT066CB 18/03 Q1020 R08R/29//50 NOSIG
UTTT 300800Z 21006KT 140V270 9999 SCT066CB 17/03 Q1020 R08R/29//50 NOSIG
UTTT 300730Z 18006KT 120V230 9999 SCT066CB 17/04 Q1021 R08R/29//50 NOSIG
UTTT 300700Z 17006KT 120V210 9999 SCT066CB 16/05 Q1021 R08R/29//50 NOSIG
UTTT 300630Z 16004KT 100V190 9999 SCT066CB 15/04 Q1021 R08R/29//50 NOSIG
UTTT 300600Z 18004KT 9999 BKN066CB 14/05 Q1021 R08R/29//50 NOSIG
UTTT 300530Z 13004KT 060V170 9999 BKN066CB 14/05 Q1021 R08R/29//50 NOSIG
UTTT 300500Z 04002KT 9999 BKN066CB 12/05 Q1021 R08R/29//50 NOSIG
UTTT 300430Z VRB02KT 9999 -SHRA BKN050CB 11/06 Q1021 R08R/29//50 NOSIG
UTTT 300400Z 22006KT 9999 -SHRA BKN050CB 13/03 Q1021 R08R/CLRD70 NOSIG
UTTT 300330Z 17006KT 9999 BKN066CB 13/02 Q1021 R26R/CLRD70 NOSIG
UTTT 300300Z 19004KT 9999 BKN066CB 13/M00 Q1020 R26R/CLRD70 NOSIG
UTTT 300230Z 18004KT 9999 BKN066CB 13/M01 Q1020 R26R/CLRD70 NOSIG
UTTT 300200Z 17006KT 9999 BKN066CB 13/M01 Q1020 R26R/CLRD70 NOSIG
UTTT 300130Z 19004KT 9999 BKN066CB 13/M01 Q1020 R26R/CLRD70 NOSIG
UTTT 300100Z 20004KT 9999 BKN066CB 13/M01 Q1020 R26R/CLRD70 NOSIG
UTTT 300030Z 21004KT 9999 SCT066CB 13/M01 Q1019 R26R/CLRD70 NOSIG
UTTT 300000Z 22006KT 9999 SCT066CB 13/01 Q1019 R26R/CLRD70 NOSIG
UTTT 292330Z 19006KT 9999 SCT066CB 13/06 Q1019 R08R/CLRD70 NOSIG
UTTT 292300Z 17006KT 9999 SCT066CB 13/07 Q1018 R08R/CLRD70 NOSIG
UTTT 292230Z 16008KT 9999 SCT066CB 12/08 Q1018 R08R/CLRD70 NOSIG
UTTT 292200Z 15008KT 9999 SCT066CB 13/07 Q1018 R08R/CLRD70 NOSIG
UTTT 292130Z 15008KT 9999 SCT066CB 13/07 Q1018 R08R/CLRD70 NOSIG
UTTT 292100Z 15006KT 9999 SCT066CB 13/07 Q1018 R08R/CLRD70 NOSIG
UTTT 292030Z 16008KT 9999 SCT066CB 13/07 Q1018 R08R/CLRD70 NOSIG
UTTT 292000Z 15006KT 9999 SCT066CB 14/07 Q1017 R26R/CLRD70 NOSIG
UTTT 291930Z 20006KT 9999 SCT066CB 14/07 Q1017 R26R/CLRD70 NOSIG
UTTT 291900Z 22008KT 9999 SCT066CB 14/06 Q1017 R26R/CLRD70 NOSIG
UTTT 291830Z 21006KT 9999 SCT066CB 15/05 Q1018 R08R/CLRD70 NOSIG
UTTT 291800Z 18006KT 9999 SCT066CB 16/04 Q1018 R08R/CLRD70 NOSIG
UTTT 291730Z 14008KT 9999 SCT066CB 17/01 Q1018 R26R/CLRD70 NOSIG